Terminal Aerodrome Forecast
Issued by NWS

Home | Current Version | Previous Version | Text Only | Print | Product List | Glossary Off
Versions: 1 2 3 4 5 6 7 8 9 10 11 12 13 14 15 16 17 18 19 20 21 22 23 24 25 26 27 28 29 30 31 32 33 34 35 36 37 38 39 40 41 42

000
FTUS43 KGRB 192022 AAA
TAFATW
TAF AMD
KATW 192022Z 1920/2018 04012G21KT 4SM -FZDZ OVC010
     FM192300 04012G22KT 4SM -FZRA OVC008
     FM200100 04011G20KT 3SM -FZRA OVC008
     FM200300 03010G18KT P6SM OVC008 PROB30 2005/2006 2SM -FZRA
      OVC003
     FM200700 03007KT P6SM OVC003 PROB30 2010/2011 1SM -FZRA
     FM201100 04007KT 2SM -FZRA OVC003
     FM201700 30005KT 6SM -RA OVC008=

USA.gov is the U.S. government's official web portal to all federal, state and local government web resources and services.